createdAt,value
2022-08-05T00:00:16.300Z,3.90
2022-08-05T00:02:43.832Z,3.65
2022-08-05T00:06:03.051Z,3.88
2022-08-05T00:08:05.140Z,3.75
2022-08-05T00:10:31.747Z,3.80
2022-08-05T00:12:58.610Z,4.05
2022-08-05T00:15:55.271Z,3.67
2022-08-05T00:18:21.309Z,4.00
2022-08-05T00:20:49.859Z,4.10
2022-08-05T00:23:16.357Z,4.30
2022-08-05T00:25:45.746Z,4.25
2022-08-05T00:28:12.864Z,3.97
2022-08-05T00:30:39.377Z,3.65
2022-08-05T00:34:42.310Z,5.00
2022-08-05T00:36:16.516Z,4.68
2022-08-05T00:38:41.319Z,4.30
2022-08-05T00:41:11.628Z,4.65
2022-08-05T00:43:46.998Z,4.90
2022-08-05T00:46:16.246Z,4.28
2022-08-05T00:48:50.573Z,4.80
2022-08-05T00:51:50.382Z,4.57
2022-08-05T00:54:05.623Z,4.90
2022-08-05T00:56:32.060Z,5.47
2022-08-05T00:59:00.164Z,5.30
2022-08-05T01:01:48.777Z,5.25
2022-08-05T01:04:14.107Z,4.95
2022-08-05T01:06:40.931Z,4.85
2022-08-05T01:09:10.077Z,5.10
2022-08-05T01:11:39.443Z,5.70
2022-08-05T01:14:15.636Z,5.32
2022-08-05T01:16:50.977Z,4.82
2022-08-05T01:19:21.727Z,5.65
2022-08-05T01:22:18.886Z,5.40
2022-08-05T01:25:11.774Z,5.43
2022-08-05T01:27:55.784Z,5.60
2022-08-05T01:30:34.752Z,5.25
2022-08-05T01:33:06.411Z,5.95
2022-08-05T01:35:51.240Z,5.53
2022-08-05T01:38:24.680Z,5.57
2022-08-05T01:40:57.324Z,5.55
2022-08-05T01:43:24.881Z,5.68
2022-08-05T01:45:56.209Z,6.00
2022-08-05T01:48:25.942Z,5.20
2022-08-05T01:50:56.692Z,5.90
2022-08-05T01:53:54.777Z,5.65
2022-08-05T01:56:13.991Z,5.93
2022-08-05T01:59:03.300Z,5.43
2022-08-05T02:01:40.180Z,5.37
2022-08-05T02:04:10.367Z,5.95
2022-08-05T02:06:38.773Z,5.55
2022-08-05T02:09:06.866Z,5.53
2022-08-05T02:11:47.896Z,5.90
2022-08-05T02:14:26.660Z,5.57
2022-08-05T02:16:55.790Z,5.22
2022-08-05T02:19:28.021Z,6.03
2022-08-05T02:22:01.129Z,5.22
2022-08-05T02:24:32.914Z,5.30
2022-08-05T02:27:09.972Z,5.28
2022-08-05T02:29:58.846Z,6.68
2022-08-05T02:32:29.448Z,5.53
2022-08-05T02:35:09.582Z,5.22
2022-08-05T02:37:43.059Z,5.18
2022-08-05T02:40:16.982Z,5.75
2022-08-05T02:42:44.752Z,5.65
2022-08-05T02:45:21.263Z,5.93
2022-08-05T02:48:06.465Z,5.50
2022-08-05T02:50:44.013Z,6.50
2022-08-05T02:53:12.050Z,5.60
2022-08-05T02:55:52.077Z,6.30
2022-08-05T02:58:23.240Z,5.60
2022-08-05T03:00:55.771Z,5.25
2022-08-05T03:03:23.660Z,5.20
2022-08-05T03:06:56.651Z,5.57
2022-08-05T03:08:42.576Z,5.35
2022-08-05T03:11:55.693Z,5.70
2022-08-05T03:14:13.548Z,5.40
2022-08-05T03:16:40.452Z,5.70
2022-08-05T03:19:17.247Z,5.50
2022-08-05T03:21:53.346Z,5.65
2022-08-05T03:24:29.529Z,5.55
2022-08-05T03:27:00.234Z,5.75
2022-08-05T03:29:44.654Z,6.10
2022-08-05T03:32:15.225Z,5.95
2022-08-05T03:34:50.441Z,5.75
2022-08-05T03:37:19.525Z,5.93
2022-08-05T03:39:59.155Z,5.32
2022-08-05T03:42:29.186Z,5.50
2022-08-05T03:44:58.509Z,6.10
2022-08-05T03:47:25.357Z,5.50
2022-08-05T03:49:57.368Z,5.40
2022-08-05T03:52:49.156Z,5.68
2022-08-05T03:56:05.886Z,5.57
2022-08-05T03:58:12.579Z,5.35
2022-08-05T04:00:41.833Z,4.53
2022-08-05T04:03:14.904Z,5.13
2022-08-05T04:05:54.052Z,5.45
2022-08-05T04:08:30.119Z,5.22
2022-08-05T04:11:07.282Z,5.65
2022-08-05T04:13:49.799Z,5.95
2022-08-05T04:16:24.150Z,5.53
2022-08-05T04:18:54.119Z,5.40
2022-08-05T04:22:09.157Z,5.70
2022-08-05T04:24:09.129Z,5.18
2022-08-05T04:26:45.512Z,5.43
2022-08-05T04:29:13.106Z,5.30
2022-08-05T04:31:40.766Z,5.55
2022-08-05T04:34:19.303Z,5.25
2022-08-05T04:36:54.317Z,5.10
2022-08-05T04:39:21.165Z,4.60
2022-08-05T04:41:48.903Z,4.90
2022-08-05T04:44:29.164Z,4.88
2022-08-05T04:46:57.299Z,5.15
2022-08-05T04:49:38.584Z,4.93
2022-08-05T04:52:11.484Z,5.00
2022-08-05T04:54:38.166Z,5.47
2022-08-05T04:57:04.614Z,5.85
2022-08-05T04:59:39.192Z,6.25
2022-08-05T05:02:37.433Z,5.75
2022-08-05T05:05:01.988Z,6.03
2022-08-05T05:07:32.373Z,5.28
2022-08-05T05:09:59.433Z,5.78
2022-08-05T05:12:29.154Z,5.50
2022-08-05T05:14:55.635Z,5.75
2022-08-05T05:17:24.656Z,5.30
2022-08-05T05:20:09.108Z,5.18
2022-08-05T05:22:35.953Z,5.40
2022-08-05T05:25:17.009Z,5.00
2022-08-05T05:27:53.651Z,5.07
2022-08-05T05:30:31.508Z,4.95
2022-08-05T05:33:08.771Z,5.43
2022-08-05T05:35:43.863Z,5.40
2022-08-05T05:38:13.812Z,5.40
2022-08-05T05:40:49.979Z,5.40
2022-08-05T05:43:57.084Z,4.90
2022-08-05T05:46:16.020Z,5.05
2022-08-05T05:48:44.843Z,4.90
2022-08-05T05:51:18.637Z,4.35
2022-08-05T05:53:54.026Z,5.05
2022-08-05T05:56:26.246Z,4.85
2022-08-05T05:58:58.503Z,4.22
2022-08-05T06:01:36.986Z,3.90
2022-08-05T06:04:08.059Z,4.30
2022-08-05T06:06:35.564Z,3.97
2022-08-05T06:09:05.993Z,3.92
2022-08-05T06:11:34.502Z,4.03
2022-08-05T06:14:00.995Z,4.03
2022-08-05T06:16:33.025Z,3.95
2022-08-05T06:19:05.793Z,3.40
2022-08-05T06:21:36.800Z,4.10
2022-08-05T06:24:11.981Z,3.38
2022-08-05T06:26:51.306Z,3.80
2022-08-05T06:29:42.911Z,4.17
2022-08-05T06:32:25.377Z,3.95
2022-08-05T06:34:56.080Z,4.00
2022-08-05T06:37:56.725Z,3.93
2022-08-05T06:40:10.782Z,4.55
2022-08-05T06:42:39.784Z,3.85
2022-08-05T06:45:08.585Z,3.72
2022-08-05T06:48:44.294Z,4.35
2022-08-05T06:50:22.345Z,3.50
2022-08-05T06:52:58.488Z,3.72
2022-08-05T06:55:36.238Z,3.75
2022-08-05T06:58:29.705Z,4.03
2022-08-05T07:00:50.260Z,3.45
2022-08-05T07:03:17.221Z,3.85
2022-08-05T07:05:44.078Z,4.15
2022-08-05T07:08:13.239Z,3.20
2022-08-05T07:10:53.062Z,4.10
2022-08-05T07:13:57.946Z,4.05
2022-08-05T07:17:56.413Z,4.15
2022-08-05T07:20:16.645Z,3.65
2022-08-05T07:22:22.031Z,3.60
2022-08-05T07:24:56.155Z,3.80
2022-08-05T07:27:22.911Z,4.20
2022-08-05T07:30:23.910Z,4.07
2022-08-05T07:32:40.702Z,4.07
2022-08-05T07:36:01.815Z,4.28
2022-08-05T07:37:55.600Z,4.15
2022-08-05T07:40:31.467Z,4.20
2022-08-05T07:42:59.221Z,3.33
2022-08-05T07:45:56.733Z,4.20
2022-08-05T07:49:02.269Z,4.18
2022-08-05T07:51:22.927Z,4.75
2022-08-05T07:53:51.671Z,5.07
2022-08-05T07:57:00.233Z,5.05
2022-08-05T07:59:04.899Z,5.10
2022-08-05T08:01:35.369Z,5.38
2022-08-05T08:04:08.046Z,5.30
2022-08-05T08:06:34.516Z,4.55
2022-08-05T08:09:00.971Z,5.25
2022-08-05T08:11:47.781Z,5.22
2022-08-05T08:14:18.421Z,5.45
2022-08-05T08:16:51.360Z,6.05
2022-08-05T08:20:22.898Z,5.40
2022-08-05T08:22:09.702Z,5.63
2022-08-05T08:24:51.288Z,4.82
2022-08-05T08:27:18.772Z,5.65
2022-08-05T08:30:05.282Z,5.32
2022-08-05T08:32:36.168Z,5.25
2022-08-05T08:35:13.658Z,5.15
2022-08-05T08:37:40.421Z,5.72
2022-08-05T08:40:12.448Z,6.00
2022-08-05T08:42:50.458Z,5.05
2022-08-05T08:45:27.218Z,5.32
2022-08-05T08:48:07.113Z,6.15
2022-08-05T08:51:22.572Z,5.38
2022-08-05T08:53:44.301Z,5.72
2022-08-05T08:56:11.816Z,5.85
2022-08-05T08:58:47.434Z,5.18
2022-08-05T09:01:17.237Z,5.85
2022-08-05T09:03:54.344Z,5.20
2022-08-05T09:06:28.004Z,5.38
2022-08-05T09:08:56.995Z,4.90
2022-08-05T09:11:52.782Z,5.55
2022-08-05T09:14:57.860Z,5.55
2022-08-05T09:17:03.816Z,4.78
2022-08-05T09:19:36.799Z,4.93
2022-08-05T09:22:21.798Z,4.70
2022-08-05T09:25:02.225Z,4.85
2022-08-05T09:28:04.566Z,4.45
2022-08-05T09:30:34.250Z,4.70
2022-08-05T09:33:04.751Z,4.78
2022-08-05T09:35:31.499Z,5.05
2022-08-05T09:38:18.452Z,4.15
2022-08-05T09:40:52.571Z,4.75
2022-08-05T09:43:40.589Z,4.15
2022-08-05T09:46:27.980Z,4.90
2022-08-05T09:49:08.199Z,4.55
2022-08-05T09:51:49.533Z,4.50
2022-08-05T09:54:29.002Z,4.75
2022-08-05T09:56:57.658Z,4.60
2022-08-05T09:59:27.993Z,4.85
2022-08-05T10:01:57.978Z,4.75
2022-08-05T10:04:35.814Z,5.03
2022-08-05T10:07:06.134Z,5.00
2022-08-05T10:10:13.952Z,5.10
2022-08-05T10:12:49.652Z,5.28
2022-08-05T10:15:37.587Z,5.07
2022-08-05T10:18:20.346Z,5.50
2022-08-05T10:20:55.907Z,5.63
2022-08-05T10:23:50.887Z,5.40
2022-08-05T10:26:15.214Z,5.70
2022-08-05T10:28:46.380Z,5.88
2022-08-05T10:32:52.142Z,5.00
2022-08-05T10:34:02.730Z,4.97
2022-08-05T10:36:30.556Z,5.07
2022-08-05T10:39:05.003Z,5.43
2022-08-05T10:42:01.386Z,5.30
2022-08-05T10:46:56.684Z,5.57
2022-08-05T10:49:26.789Z,4.50
2022-08-05T10:52:02.668Z,5.25
2022-08-05T10:55:01.671Z,4.57
2022-08-05T10:57:30.967Z,3.88
2022-08-05T11:00:19.042Z,3.80
2022-08-05T11:03:23.735Z,3.30
2022-08-05T11:06:15.196Z,3.70
2022-08-05T11:09:13.043Z,3.83
2022-08-05T11:11:52.163Z,3.92
2022-08-05T11:14:37.283Z,2.92
2022-08-05T11:18:07.437Z,3.28
2022-08-05T11:20:41.835Z,3.40
2022-08-05T11:23:33.401Z,2.83
2022-08-05T11:26:28.311Z,3.40
2022-08-05T11:29:06.899Z,3.42
2022-08-05T11:31:57.942Z,3.38
2022-08-05T11:34:39.371Z,3.50
2022-08-05T11:38:29.465Z,3.58
2022-08-05T11:40:00.688Z,3.42
2022-08-05T11:42:38.022Z,3.25
2022-08-05T11:45:26.766Z,3.13
2022-08-05T11:47:55.053Z,3.22
2022-08-05T11:50:22.346Z,2.88
2022-08-05T11:52:51.088Z,2.85
2022-08-05T11:55:19.801Z,2.83
2022-08-05T11:58:09.297Z,2.45
2022-08-05T12:00:38.351Z,2.80
2022-08-05T12:03:28.561Z,2.88
2022-08-05T12:06:06.620Z,2.65
2022-08-05T12:11:39.791Z,2.45
2022-08-05T12:14:10.545Z,2.38
2022-08-05T12:16:39.385Z,2.55
2022-08-05T12:19:08.432Z,2.70
2022-08-05T12:21:49.483Z,2.63
2022-08-05T12:24:20.787Z,2.78
2022-08-05T12:26:53.106Z,2.70
2022-08-05T12:29:22.864Z,2.75
2022-08-05T12:31:55.315Z,3.00
2022-08-05T12:34:26.638Z,3.05
2022-08-05T12:36:54.800Z,2.90
2022-08-05T12:39:23.748Z,3.10
2022-08-05T12:42:01.968Z,2.92
2022-08-05T12:44:34.187Z,2.92
2022-08-05T12:47:02.253Z,2.88
2022-08-05T12:50:04.782Z,2.72
2022-08-05T12:52:32.312Z,2.88
2022-08-05T12:55:18.069Z,3.08
2022-08-05T12:58:50.692Z,2.85
2022-08-05T13:02:01.238Z,2.53
2022-08-05T13:03:32.494Z,2.92
2022-08-05T13:05:59.676Z,2.72
2022-08-05T13:08:30.007Z,3.13
2022-08-05T13:11:02.341Z,2.78
2022-08-05T13:14:05.756Z,2.65
2022-08-05T13:16:17.308Z,3.17
2022-08-05T13:18:57.786Z,2.50
2022-08-05T13:21:28.141Z,3.40
2022-08-05T13:24:04.789Z,2.63
2022-08-05T13:26:31.205Z,3.40
2022-08-05T13:28:59.133Z,3.08
2022-08-05T13:31:33.826Z,2.63
2022-08-05T13:34:23.243Z,2.58
2022-08-05T13:36:52.250Z,2.38
2022-08-05T13:39:24.682Z,2.60
2022-08-05T13:42:05.261Z,3.00
2022-08-05T13:44:32.391Z,3.00
2022-08-05T13:47:01.721Z,3.30
2022-08-05T13:52:18.433Z,2.83
2022-08-05T13:54:53.528Z,2.95
2022-08-05T13:57:20.674Z,3.05
2022-08-05T13:59:55.366Z,3.10
2022-08-05T14:02:26.554Z,3.60
2022-08-05T14:05:11.982Z,3.28
2022-08-05T14:08:00.583Z,3.75
2022-08-05T14:10:30.961Z,3.40
2022-08-05T14:12:58.269Z,3.55
2022-08-05T14:16:07.118Z,3.28
2022-08-05T14:18:14.730Z,3.40
2022-08-05T14:20:46.822Z,3.50
2022-08-05T14:23:13.851Z,3.63
2022-08-05T14:25:43.573Z,2.97
2022-08-05T14:28:22.755Z,3.22
2022-08-05T14:30:53.657Z,3.22
2022-08-05T14:33:22.460Z,3.63
2022-08-05T14:35:51.769Z,4.00
2022-08-05T14:38:31.518Z,3.78
2022-08-05T14:41:06.275Z,3.60
2022-08-05T14:43:57.673Z,3.70
2022-08-05T14:46:28.131Z,3.67
2022-08-05T14:48:56.927Z,3.72
2022-08-05T14:51:23.944Z,3.28
2022-08-05T14:54:25.905Z,3.72
2022-08-05T14:56:37.989Z,3.90
2022-08-05T14:59:11.329Z,3.70
2022-08-05T15:01:47.236Z,3.75
2022-08-05T15:04:15.955Z,3.55
2022-08-05T15:06:42.399Z,3.55
2022-08-05T15:09:16.032Z,4.05
2022-08-05T15:12:04.041Z,4.20
2022-08-05T15:14:35.551Z,4.35
2022-08-05T15:17:14.527Z,4.47
2022-08-05T15:19:55.846Z,4.15
2022-08-05T15:22:22.601Z,4.10
2022-08-05T15:24:54.122Z,4.32
2022-08-05T15:27:20.543Z,4.30
2022-08-05T15:29:47.044Z,3.90
2022-08-05T15:32:16.465Z,4.20
2022-08-05T15:34:43.137Z,4.00
2022-08-05T15:37:15.537Z,3.75
2022-08-05T15:41:01.610Z,4.03
2022-08-05T15:42:55.592Z,4.22
2022-08-05T15:45:16.006Z,3.50
2022-08-05T15:47:43.826Z,4.05
2022-08-05T15:50:15.506Z,3.78
2022-08-05T15:52:53.303Z,4.28
2022-08-05T15:55:24.903Z,4.55
2022-08-05T15:58:08.845Z,3.80
2022-08-05T16:00:50.608Z,3.50
2022-08-05T16:03:21.855Z,4.00
2022-08-05T16:05:52.413Z,3.55
2022-08-05T16:08:19.285Z,4.45
2022-08-05T16:10:45.716Z,4.28
2022-08-05T16:13:12.533Z,4.50
2022-08-05T16:15:45.832Z,5.95
2022-08-05T16:18:13.828Z,5.38
2022-08-05T16:20:40.924Z,5.10
2022-08-05T16:23:08.626Z,5.18
2022-08-05T16:25:35.975Z,4.80
2022-08-05T16:28:06.662Z,5.00
2022-08-05T16:30:36.824Z,3.97
2022-08-05T16:33:03.377Z,4.15
2022-08-05T16:35:33.530Z,4.07
2022-08-05T16:38:18.699Z,3.53
2022-08-05T16:40:55.683Z,2.92
2022-08-05T16:43:30.929Z,2.80
2022-08-05T16:46:04.704Z,2.40
2022-08-05T16:48:39.276Z,2.63
2022-08-05T16:51:09.277Z,2.83
2022-08-05T16:54:05.931Z,2.45
2022-08-05T16:56:25.221Z,2.80
2022-08-05T16:58:51.740Z,2.00
2022-08-05T17:01:18.725Z,2.45
2022-08-05T17:03:45.638Z,2.55
2022-08-05T17:06:12.466Z,2.00
2022-08-05T17:08:53.165Z,1.95
2022-08-05T17:11:25.400Z,1.88
2022-08-05T17:14:00.614Z,1.50
2022-08-05T17:16:36.439Z,1.65
2022-08-05T17:19:07.878Z,1.40
2022-08-05T17:21:37.633Z,1.00
2022-08-05T17:24:18.614Z,1.40
2022-08-05T17:26:55.651Z,1.30
2022-08-05T17:29:33.888Z,1.30
2022-08-05T17:32:17.093Z,1.13
2022-08-05T17:34:49.131Z,1.50
2022-08-05T17:37:41.770Z,1.45
2022-08-05T17:40:10.247Z,1.02
2022-08-05T17:42:42.980Z,1.40
2022-08-05T17:45:20.797Z,1.10
2022-08-05T17:47:54.088Z,1.10
2022-08-05T17:50:28.045Z,1.25
2022-08-05T17:53:01.274Z,1.13
2022-08-05T17:55:37.949Z,1.58
2022-08-05T17:58:13.217Z,1.20
2022-08-05T18:00:44.971Z,1.05
2022-08-05T18:03:28.063Z,1.20
2022-08-05T18:06:04.570Z,1.00
2022-08-05T18:08:34.746Z,1.17
2022-08-05T18:11:01.204Z,0.90
2022-08-05T18:13:36.937Z,1.33
2022-08-05T18:18:41.162Z,1.40
2022-08-05T18:21:13.386Z,1.38
2022-08-05T18:23:47.096Z,1.67
2022-08-05T18:26:13.840Z,1.83
2022-08-05T18:31:13.236Z,1.25
2022-08-05T18:33:47.344Z,0.80
2022-08-05T18:36:17.965Z,1.30
2022-08-05T18:38:45.768Z,1.25
2022-08-05T18:41:57.002Z,1.20
2022-08-05T18:44:05.488Z,1.30
2022-08-05T18:46:33.266Z,1.00
2022-08-05T18:49:20.533Z,1.13
2022-08-05T18:52:08.539Z,1.20
2022-08-05T18:54:35.686Z,1.42
2022-08-05T18:57:02.574Z,1.35
2022-08-05T18:59:43.409Z,1.38
2022-08-05T19:02:28.101Z,1.10
2022-08-05T19:05:02.587Z,1.50
2022-08-05T19:07:50.108Z,1.20
2022-08-05T19:10:26.554Z,1.40
2022-08-05T19:12:55.466Z,1.25
2022-08-05T19:15:57.511Z,1.40
2022-08-05T19:18:10.698Z,1.60
2022-08-05T19:20:41.699Z,1.38
2022-08-05T19:24:03.502Z,1.17
2022-08-05T19:26:01.634Z,1.25
2022-08-05T19:28:29.017Z,1.23
2022-08-05T19:30:55.702Z,1.40
2022-08-05T19:33:34.061Z,1.60
2022-08-05T19:36:02.567Z,1.85
2022-08-05T19:38:29.007Z,1.23
2022-08-05T19:40:55.499Z,1.50
2022-08-05T19:44:04.934Z,1.23
2022-08-05T19:46:16.698Z,1.83
2022-08-05T19:48:55.258Z,1.48
2022-08-05T19:51:31.264Z,1.38
2022-08-05T19:54:21.919Z,1.20
2022-08-05T19:56:57.443Z,1.35
2022-08-05T19:59:56.582Z,1.40
2022-08-05T20:02:10.379Z,1.48
2022-08-05T20:04:37.458Z,1.20
2022-08-05T20:07:04.100Z,1.38
2022-08-05T20:09:54.627Z,1.60
2022-08-05T20:12:24.311Z,1.60
2022-08-05T20:14:52.345Z,1.27
2022-08-05T20:17:23.670Z,1.48
2022-08-05T20:19:57.332Z,1.20
2022-08-05T20:22:26.811Z,1.13
2022-08-05T20:24:57.187Z,1.30
2022-08-05T20:27:27.284Z,1.40
2022-08-05T20:30:09.578Z,1.40
2022-08-05T20:32:36.741Z,2.28
2022-08-05T20:35:11.700Z,2.05
2022-08-05T20:38:06.608Z,1.20
2022-08-05T20:40:24.808Z,1.50
2022-08-05T20:42:53.484Z,1.30
2022-08-05T20:45:56.322Z,1.38
2022-08-05T20:48:12.949Z,1.65
2022-08-05T20:50:45.210Z,1.50
2022-08-05T20:53:16.031Z,1.52
2022-08-05T20:56:08.667Z,1.15
2022-08-05T20:58:35.985Z,1.20
2022-08-05T21:01:03.849Z,1.35
2022-08-05T21:03:34.729Z,1.58
2022-08-05T21:06:01.714Z,1.70
2022-08-05T21:08:41.907Z,1.70
2022-08-05T21:11:12.973Z,1.58
2022-08-05T21:13:59.100Z,3.03
2022-08-05T21:16:30.013Z,1.70
2022-08-05T21:18:59.883Z,1.95
2022-08-05T21:21:26.847Z,1.65
2022-08-05T21:24:07.296Z,1.58
2022-08-05T21:26:33.797Z,1.55
2022-08-05T21:29:03.539Z,1.67
2022-08-05T21:31:41.194Z,1.77
2022-08-05T21:34:10.534Z,1.73
2022-08-05T21:36:37.721Z,1.58
2022-08-05T21:39:04.219Z,1.98
2022-08-05T21:41:34.211Z,1.60
2022-08-05T21:44:04.108Z,1.90
2022-08-05T21:46:34.520Z,1.88
2022-08-05T21:49:02.311Z,1.67
2022-08-05T21:52:21.814Z,1.77
2022-08-05T21:54:27.678Z,1.65
2022-08-05T21:57:09.544Z,1.80
2022-08-05T22:00:03.066Z,1.90
2022-08-05T22:02:27.673Z,1.67
2022-08-05T22:04:58.093Z,2.22
2022-08-05T22:07:39.834Z,2.10
2022-08-05T22:10:11.813Z,2.03
2022-08-05T22:12:44.963Z,2.33
2022-08-05T22:16:01.704Z,2.25
2022-08-05T22:18:04.618Z,2.28
2022-08-05T22:20:31.233Z,2.42
2022-08-05T22:23:21.348Z,2.20
2022-08-05T22:26:09.996Z,2.10
2022-08-05T22:28:38.051Z,1.67
2022-08-05T22:31:05.853Z,1.70
2022-08-05T22:33:58.113Z,1.50
2022-08-05T22:36:19.525Z,1.63
2022-08-05T22:38:51.699Z,1.70
2022-08-05T22:41:26.235Z,1.50
2022-08-05T22:44:08.451Z,1.17
2022-08-05T22:46:40.047Z,1.60
2022-08-05T22:49:23.123Z,1.77
2022-08-05T22:52:04.579Z,0.90
2022-08-05T22:54:33.456Z,1.10
2022-08-05T22:56:59.887Z,1.30
2022-08-05T22:59:45.372Z,1.30
2022-08-05T23:02:13.777Z,1.25
2022-08-05T23:04:51.206Z,1.25
2022-08-05T23:07:19.101Z,1.15
2022-08-05T23:09:58.282Z,1.58
2022-08-05T23:12:32.861Z,0.90
2022-08-05T23:15:04.021Z,1.45
2022-08-05T23:17:59.676Z,0.85
2022-08-05T23:20:24.356Z,0.90
2022-08-05T23:22:54.169Z,1.10
2022-08-05T23:25:52.713Z,1.00
2022-08-05T23:28:09.875Z,0.70
2022-08-05T23:30:40.404Z,1.00
2022-08-05T23:33:22.037Z,1.20
2022-08-05T23:35:50.017Z,1.00
2022-08-05T23:38:16.985Z,0.75
2022-08-05T23:40:49.383Z,1.00
2022-08-05T23:43:25.764Z,1.25
2022-08-05T23:46:03.196Z,0.82
2022-08-05T23:48:29.643Z,0.82
2022-08-05T23:50:56.058Z,0.90
2022-08-05T23:53:28.489Z,0.80
2022-08-05T23:56:11.672Z,0.77
2022-08-05T23:58:38.527Z,0.65
